sensor_id;sensor_type;location;lat;lon;timestamp;P1;durP1;ratioP1;P2;durP2;ratioP2
71790;SDS011;59638;52.126;5.434;2022-07-29T00:01:01;2.15;;;0.20;;
71790;SDS011;59638;52.126;5.434;2022-07-29T00:03:28;1.13;;;0.20;;
71790;SDS011;59638;52.126;5.434;2022-07-29T00:05:55;1.40;;;0.20;;
71790;SDS011;59638;52.126;5.434;2022-07-29T00:08:21;0.80;;;0.15;;
71790;SDS011;59638;52.126;5.434;2022-07-29T00:10:49;0.93;;;0.30;;
71790;SDS011;59638;52.126;5.434;2022-07-29T00:13:16;3.92;;;0.20;;
71790;SDS011;59638;52.126;5.434;2022-07-29T00:15:42;1.20;;;0.20;;
71790;SDS011;59638;52.126;5.434;2022-07-29T00:18:09;1.95;;;0.25;;
71790;SDS011;59638;52.126;5.434;2022-07-29T00:20:35;3.33;;;0.40;;
71790;SDS011;59638;52.126;5.434;2022-07-29T00:23:02;0.75;;;0.20;;
71790;SDS011;59638;52.126;5.434;2022-07-29T00:25:29;5.05;;;0.20;;
71790;SDS011;59638;52.126;5.434;2022-07-29T00:27:55;1.23;;;0.30;;
71790;SDS011;59638;52.126;5.434;2022-07-29T00:30:22;1.10;;;0.20;;
71790;SDS011;59638;52.126;5.434;2022-07-29T00:32:48;0.80;;;0.10;;
71790;SDS011;59638;52.126;5.434;2022-07-29T00:35:15;0.70;;;0.20;;
71790;SDS011;59638;52.126;5.434;2022-07-29T00:38:00;2.40;;;0.20;;
71790;SDS011;59638;52.126;5.434;2022-07-29T00:40:27;1.00;;;0.20;;
71790;SDS011;59638;52.126;5.434;2022-07-29T00:42:53;1.02;;;0.22;;
71790;SDS011;59638;52.126;5.434;2022-07-29T00:45:20;1.38;;;0.45;;
71790;SDS011;59638;52.126;5.434;2022-07-29T00:47:48;5.70;;;0.20;;
71790;SDS011;59638;52.126;5.434;2022-07-29T00:50:14;0.75;;;0.20;;
71790;SDS011;59638;52.126;5.434;2022-07-29T00:52:41;1.70;;;0.30;;
71790;SDS011;59638;52.126;5.434;2022-07-29T00:55:10;0.90;;;0.30;;
71790;SDS011;59638;52.126;5.434;2022-07-29T00:57:39;3.20;;;0.30;;
71790;SDS011;59638;52.126;5.434;2022-07-29T01:00:08;0.75;;;0.20;;
71790;SDS011;59638;52.126;5.434;2022-07-29T01:02:37;1.65;;;0.20;;
71790;SDS011;59638;52.126;5.434;2022-07-29T01:05:04;1.03;;;0.20;;
71790;SDS011;59638;52.126;5.434;2022-07-29T01:07:32;3.65;;;0.20;;
71790;SDS011;59638;52.126;5.434;2022-07-29T01:10:01;3.55;;;0.20;;
71790;SDS011;59638;52.126;5.434;2022-07-29T01:12:32;2.15;;;0.20;;
71790;SDS011;59638;52.126;5.434;2022-07-29T01:15:01;1.85;;;0.40;;
71790;SDS011;59638;52.126;5.434;2022-07-29T01:17:36;0.87;;;0.20;;
71790;SDS011;59638;52.126;5.434;2022-07-29T01:32:14;1.47;;;0.20;;
71790;SDS011;59638;52.126;5.434;2022-07-29T01:37:06;1.20;;;0.20;;
71790;SDS011;59638;52.126;5.434;2022-07-29T01:39:37;1.45;;;0.60;;
71790;SDS011;59638;52.126;5.434;2022-07-29T01:42:10;1.65;;;0.55;;
71790;SDS011;59638;52.126;5.434;2022-07-29T01:44:45;5.30;;;0.30;;
71790;SDS011;59638;52.126;5.434;2022-07-29T01:47:17;5.07;;;0.45;;
71790;SDS011;59638;52.126;5.434;2022-07-29T01:49:49;2.63;;;0.30;;
71790;SDS011;59638;52.126;5.434;2022-07-29T01:52:20;1.88;;;0.20;;
71790;SDS011;59638;52.126;5.434;2022-07-29T01:54:52;1.67;;;0.20;;
71790;SDS011;59638;52.126;5.434;2022-07-29T01:57:26;2.93;;;0.30;;
71790;SDS011;59638;52.126;5.434;2022-07-29T01:59:56;3.15;;;0.38;;
71790;SDS011;59638;52.126;5.434;2022-07-29T02:02:24;1.08;;;0.20;;
71790;SDS011;59638;52.126;5.434;2022-07-29T02:04:53;3.17;;;0.20;;
71790;SDS011;59638;52.126;5.434;2022-07-29T02:07:22;0.90;;;0.20;;
71790;SDS011;59638;52.126;5.434;2022-07-29T02:09:51;0.67;;;0.20;;
71790;SDS011;59638;52.126;5.434;2022-07-29T02:12:19;1.52;;;0.20;;
71790;SDS011;59638;52.126;5.434;2022-07-29T02:14:50;2.40;;;0.30;;
71790;SDS011;59638;52.126;5.434;2022-07-29T02:17:26;0.95;;;0.20;;
71790;SDS011;59638;52.126;5.434;2022-07-29T02:19:57;0.52;;;0.28;;
71790;SDS011;59638;52.126;5.434;2022-07-29T02:22:28;2.73;;;0.30;;
71790;SDS011;59638;52.126;5.434;2022-07-29T02:24:57;4.20;;;0.63;;
71790;SDS011;59638;52.126;5.434;2022-07-29T02:27:26;2.20;;;0.25;;
71790;SDS011;59638;52.126;5.434;2022-07-29T02:29:55;1.48;;;0.20;;
71790;SDS011;59638;52.126;5.434;2022-07-29T02:32:24;1.55;;;0.40;;
71790;SDS011;59638;52.126;5.434;2022-07-29T02:34:53;1.00;;;0.20;;
71790;SDS011;59638;52.126;5.434;2022-07-29T02:37:21;2.97;;;0.30;;
71790;SDS011;59638;52.126;5.434;2022-07-29T02:39:50;2.00;;;0.50;;
71790;SDS011;59638;52.126;5.434;2022-07-29T02:42:19;1.17;;;0.30;;
71790;SDS011;59638;52.126;5.434;2022-07-29T02:44:48;1.83;;;0.30;;
71790;SDS011;59638;52.126;5.434;2022-07-29T02:53:09;1.27;;;0.45;;
71790;SDS011;59638;52.126;5.434;2022-07-29T02:55:40;4.55;;;0.68;;
71790;SDS011;59638;52.126;5.434;2022-07-29T03:00:55;1.20;;;0.40;;
71790;SDS011;59638;52.126;5.434;2022-07-29T03:03:23;1.40;;;0.30;;
71790;SDS011;59638;52.126;5.434;2022-07-29T03:05:54;2.25;;;0.30;;
71790;SDS011;59638;52.126;5.434;2022-07-29T03:08:23;1.58;;;0.40;;
71790;SDS011;59638;52.126;5.434;2022-07-29T03:10:50;2.72;;;0.30;;
71790;SDS011;59638;52.126;5.434;2022-07-29T03:13:18;2.23;;;0.23;;
71790;SDS011;59638;52.126;5.434;2022-07-29T03:15:45;3.97;;;0.25;;
71790;SDS011;59638;52.126;5.434;2022-07-29T03:18:13;1.25;;;0.47;;
71790;SDS011;59638;52.126;5.434;2022-07-29T03:20:40;1.50;;;0.40;;
71790;SDS011;59638;52.126;5.434;2022-07-29T03:23:10;2.85;;;0.30;;
71790;SDS011;59638;52.126;5.434;2022-07-29T03:25:36;1.27;;;0.30;;
71790;SDS011;59638;52.126;5.434;2022-07-29T03:28:03;1.33;;;0.30;;
71790;SDS011;59638;52.126;5.434;2022-07-29T03:30:29;1.10;;;0.30;;
71790;SDS011;59638;52.126;5.434;2022-07-29T03:32:57;2.85;;;0.30;;
71790;SDS011;59638;52.126;5.434;2022-07-29T03:35:24;3.20;;;0.40;;
71790;SDS011;59638;52.126;5.434;2022-07-29T03:37:50;3.17;;;0.73;;
71790;SDS011;59638;52.126;5.434;2022-07-29T03:40:22;3.00;;;0.38;;
71790;SDS011;59638;52.126;5.434;2022-07-29T03:42:53;1.67;;;0.30;;
71790;SDS011;59638;52.126;5.434;2022-07-29T03:45:21;2.83;;;0.30;;
71790;SDS011;59638;52.126;5.434;2022-07-29T03:47:50;1.13;;;0.32;;
71790;SDS011;59638;52.126;5.434;2022-07-29T03:50:25;0.90;;;0.30;;
71790;SDS011;59638;52.126;5.434;2022-07-29T03:52:53;3.90;;;0.47;;
71790;SDS011;59638;52.126;5.434;2022-07-29T03:55:19;2.80;;;0.25;;
71790;SDS011;59638;52.126;5.434;2022-07-29T03:57:46;3.40;;;0.40;;
71790;SDS011;59638;52.126;5.434;2022-07-29T04:00:14;1.85;;;0.65;;
71790;SDS011;59638;52.126;5.434;2022-07-29T04:02:45;1.73;;;0.20;;
71790;SDS011;59638;52.126;5.434;2022-07-29T04:05:15;1.88;;;0.30;;
71790;SDS011;59638;52.126;5.434;2022-07-29T04:07:48;3.78;;;0.45;;
71790;SDS011;59638;52.126;5.434;2022-07-29T04:10:15;3.30;;;0.25;;
71790;SDS011;59638;52.126;5.434;2022-07-29T04:12:55;3.30;;;0.52;;
71790;SDS011;59638;52.126;5.434;2022-07-29T04:15:21;1.07;;;0.20;;
71790;SDS011;59638;52.126;5.434;2022-07-29T04:17:48;1.15;;;0.20;;
71790;SDS011;59638;52.126;5.434;2022-07-29T04:20:14;3.25;;;0.30;;
71790;SDS011;59638;52.126;5.434;2022-07-29T04:22:41;1.90;;;0.20;;
71790;SDS011;59638;52.126;5.434;2022-07-29T04:25:07;1.70;;;0.30;;
71790;SDS011;59638;52.126;5.434;2022-07-29T04:27:34;3.17;;;0.30;;
71790;SDS011;59638;52.126;5.434;2022-07-29T04:30:00;3.20;;;0.35;;
71790;SDS011;59638;52.126;5.434;2022-07-29T04:32:27;5.28;;;0.30;;
71790;SDS011;59638;52.126;5.434;2022-07-29T04:34:53;6.30;;;0.50;;
71790;SDS011;59638;52.126;5.434;2022-07-29T04:37:20;2.53;;;0.30;;
71790;SDS011;59638;52.126;5.434;2022-07-29T04:39:46;3.23;;;0.30;;
71790;SDS011;59638;52.126;5.434;2022-07-29T04:42:13;1.60;;;0.50;;
71790;SDS011;59638;52.126;5.434;2022-07-29T04:44:39;1.85;;;0.40;;
71790;SDS011;59638;52.126;5.434;2022-07-29T04:47:08;2.45;;;0.70;;
71790;SDS011;59638;52.126;5.434;2022-07-29T04:49:37;5.30;;;0.60;;
71790;SDS011;59638;52.126;5.434;2022-07-29T04:52:04;0.83;;;0.30;;
71790;SDS011;59638;52.126;5.434;2022-07-29T04:54:31;2.70;;;0.43;;
71790;SDS011;59638;52.126;5.434;2022-07-29T04:56:57;2.92;;;0.35;;
71790;SDS011;59638;52.126;5.434;2022-07-29T04:59:24;1.30;;;0.60;;
71790;SDS011;59638;52.126;5.434;2022-07-29T05:01:51;1.38;;;0.30;;
71790;SDS011;59638;52.126;5.434;2022-07-29T05:04:17;1.80;;;0.33;;
71790;SDS011;59638;52.126;5.434;2022-07-29T05:06:45;1.05;;;0.50;;
71790;SDS011;59638;52.126;5.434;2022-07-29T05:09:11;3.55;;;0.70;;
71790;SDS011;59638;52.126;5.434;2022-07-29T05:11:38;2.92;;;0.45;;
71790;SDS011;59638;52.126;5.434;2022-07-29T05:14:04;1.25;;;0.35;;
71790;SDS011;59638;52.126;5.434;2022-07-29T05:16:31;1.80;;;0.63;;
71790;SDS011;59638;52.126;5.434;2022-07-29T05:18:57;1.73;;;0.30;;
71790;SDS011;59638;52.126;5.434;2022-07-29T05:21:23;2.30;;;0.40;;
71790;SDS011;59638;52.126;5.434;2022-07-29T05:23:50;2.03;;;0.20;;
71790;SDS011;59638;52.126;5.434;2022-07-29T05:26:16;3.30;;;0.30;;
71790;SDS011;59638;52.126;5.434;2022-07-29T05:28:43;2.57;;;0.50;;
71790;SDS011;59638;52.126;5.434;2022-07-29T05:31:09;4.93;;;0.32;;
71790;SDS011;59638;52.126;5.434;2022-07-29T05:33:36;3.42;;;0.40;;
71790;SDS011;59638;52.126;5.434;2022-07-29T05:36:05;0.95;;;0.30;;
71790;SDS011;59638;52.126;5.434;2022-07-29T05:38:33;1.20;;;0.40;;
71790;SDS011;59638;52.126;5.434;2022-07-29T05:41:01;13.53;;;0.90;;
71790;SDS011;59638;52.126;5.434;2022-07-29T05:43:28;3.65;;;0.40;;
71790;SDS011;59638;52.126;5.434;2022-07-29T05:45:54;3.10;;;0.40;;
71790;SDS011;59638;52.126;5.434;2022-07-29T05:48:21;4.00;;;0.75;;
71790;SDS011;59638;52.126;5.434;2022-07-29T05:50:48;2.90;;;0.30;;
71790;SDS011;59638;52.126;5.434;2022-07-29T05:53:14;2.07;;;0.33;;
71790;SDS011;59638;52.126;5.434;2022-07-29T05:55:46;1.67;;;0.40;;
71790;SDS011;59638;52.126;5.434;2022-07-29T05:58:17;1.80;;;0.40;;
71790;SDS011;59638;52.126;5.434;2022-07-29T06:00:44;2.17;;;0.50;;
71790;SDS011;59638;52.126;5.434;2022-07-29T06:03:11;4.43;;;0.43;;
71790;SDS011;59638;52.126;5.434;2022-07-29T06:05:38;2.77;;;0.50;;
71790;SDS011;59638;52.126;5.434;2022-07-29T06:08:05;1.40;;;0.38;;
71790;SDS011;59638;52.126;5.434;2022-07-29T06:10:34;2.10;;;0.40;;
71790;SDS011;59638;52.126;5.434;2022-07-29T06:13:01;3.28;;;0.50;;
71790;SDS011;59638;52.126;5.434;2022-07-29T06:15:27;2.80;;;0.32;;
71790;SDS011;59638;52.126;5.434;2022-07-29T06:17:53;2.67;;;0.40;;
71790;SDS011;59638;52.126;5.434;2022-07-29T06:20:27;2.85;;;0.30;;
71790;SDS011;59638;52.126;5.434;2022-07-29T06:22:56;3.17;;;0.30;;
71790;SDS011;59638;52.126;5.434;2022-07-29T06:25:23;4.97;;;0.50;;
71790;SDS011;59638;52.126;5.434;2022-07-29T06:27:49;4.43;;;0.77;;
71790;SDS011;59638;52.126;5.434;2022-07-29T06:30:16;2.80;;;0.50;;
71790;SDS011;59638;52.126;5.434;2022-07-29T06:32:42;2.53;;;0.65;;
71790;SDS011;59638;52.126;5.434;2022-07-29T06:35:09;2.10;;;0.40;;
71790;SDS011;59638;52.126;5.434;2022-07-29T06:37:55;1.92;;;0.52;;
71790;SDS011;59638;52.126;5.434;2022-07-29T06:40:24;2.80;;;0.30;;
71790;SDS011;59638;52.126;5.434;2022-07-29T06:43:09;2.13;;;0.53;;
71790;SDS011;59638;52.126;5.434;2022-07-29T06:45:36;3.47;;;0.43;;
71790;SDS011;59638;52.126;5.434;2022-07-29T06:48:04;2.50;;;0.40;;
71790;SDS011;59638;52.126;5.434;2022-07-29T06:50:31;3.42;;;0.35;;
71790;SDS011;59638;52.126;5.434;2022-07-29T06:52:57;3.92;;;0.43;;
71790;SDS011;59638;52.126;5.434;2022-07-29T06:55:24;3.17;;;0.60;;
71790;SDS011;59638;52.126;5.434;2022-07-29T06:57:50;1.23;;;0.52;;
71790;SDS011;59638;52.126;5.434;2022-07-29T07:00:17;3.97;;;1.05;;
71790;SDS011;59638;52.126;5.434;2022-07-29T07:02:43;2.88;;;0.77;;
71790;SDS011;59638;52.126;5.434;2022-07-29T07:05:12;1.08;;;0.52;;
71790;SDS011;59638;52.126;5.434;2022-07-29T07:07:38;2.20;;;0.43;;
71790;SDS011;59638;52.126;5.434;2022-07-29T07:10:05;4.82;;;0.40;;
71790;SDS011;59638;52.126;5.434;2022-07-29T07:12:32;2.10;;;0.63;;
71790;SDS011;59638;52.126;5.434;2022-07-29T07:14:58;2.22;;;0.73;;
71790;SDS011;59638;52.126;5.434;2022-07-29T07:17:24;2.35;;;0.47;;
71790;SDS011;59638;52.126;5.434;2022-07-29T07:19:51;3.07;;;0.50;;
71790;SDS011;59638;52.126;5.434;2022-07-29T07:22:17;4.50;;;0.73;;
71790;SDS011;59638;52.126;5.434;2022-07-29T07:24:43;2.65;;;0.90;;
71790;SDS011;59638;52.126;5.434;2022-07-29T07:27:10;2.97;;;0.60;;
71790;SDS011;59638;52.126;5.434;2022-07-29T07:29:36;1.65;;;0.80;;
71790;SDS011;59638;52.126;5.434;2022-07-29T07:32:03;4.57;;;0.70;;
71790;SDS011;59638;52.126;5.434;2022-07-29T07:34:29;2.90;;;0.80;;
71790;SDS011;59638;52.126;5.434;2022-07-29T07:36:56;1.65;;;0.80;;
71790;SDS011;59638;52.126;5.434;2022-07-29T07:39:22;3.05;;;0.60;;
71790;SDS011;59638;52.126;5.434;2022-07-29T07:41:49;3.28;;;0.80;;
71790;SDS011;59638;52.126;5.434;2022-07-29T07:44:15;2.50;;;0.80;;
71790;SDS011;59638;52.126;5.434;2022-07-29T07:46:42;2.90;;;0.85;;
71790;SDS011;59638;52.126;5.434;2022-07-29T07:49:11;2.78;;;0.70;;
71790;SDS011;59638;52.126;5.434;2022-07-29T07:51:37;1.63;;;0.90;;
71790;SDS011;59638;52.126;5.434;2022-07-29T07:54:04;2.45;;;0.60;;
71790;SDS011;59638;52.126;5.434;2022-07-29T07:56:32;2.80;;;0.90;;
71790;SDS011;59638;52.126;5.434;2022-07-29T07:59:00;2.45;;;1.85;;
71790;SDS011;59638;52.126;5.434;2022-07-29T08:01:27;2.00;;;0.70;;
71790;SDS011;59638;52.126;5.434;2022-07-29T08:03:54;4.10;;;0.85;;
71790;SDS011;59638;52.126;5.434;2022-07-29T08:06:20;2.88;;;0.90;;
71790;SDS011;59638;52.126;5.434;2022-07-29T08:08:46;1.33;;;0.83;;
71790;SDS011;59638;52.126;5.434;2022-07-29T08:11:13;2.78;;;0.90;;
71790;SDS011;59638;52.126;5.434;2022-07-29T08:13:40;2.72;;;0.88;;
71790;SDS011;59638;52.126;5.434;2022-07-29T08:16:07;1.63;;;1.17;;
71790;SDS011;59638;52.126;5.434;2022-07-29T08:18:42;1.50;;;1.02;;
71790;SDS011;59638;52.126;5.434;2022-07-29T08:21:09;2.20;;;0.60;;
71790;SDS011;59638;52.126;5.434;2022-07-29T08:23:40;2.55;;;0.73;;
71790;SDS011;59638;52.126;5.434;2022-07-29T08:26:23;2.92;;;0.80;;
71790;SDS011;59638;52.126;5.434;2022-07-29T08:28:49;1.75;;;0.68;;
71790;SDS011;59638;52.126;5.434;2022-07-29T08:31:16;1.00;;;0.80;;
71790;SDS011;59638;52.126;5.434;2022-07-29T08:33:44;3.67;;;1.40;;
71790;SDS011;59638;52.126;5.434;2022-07-29T08:36:10;5.32;;;0.70;;
71790;SDS011;59638;52.126;5.434;2022-07-29T08:38:39;1.95;;;0.90;;
71790;SDS011;59638;52.126;5.434;2022-07-29T08:41:05;3.08;;;0.60;;
71790;SDS011;59638;52.126;5.434;2022-07-29T08:43:32;2.67;;;0.80;;
71790;SDS011;59638;52.126;5.434;2022-07-29T08:46:01;2.03;;;0.70;;
71790;SDS011;59638;52.126;5.434;2022-07-29T08:48:27;2.25;;;0.70;;
71790;SDS011;59638;52.126;5.434;2022-07-29T08:50:55;3.80;;;0.90;;
71790;SDS011;59638;52.126;5.434;2022-07-29T08:53:23;5.22;;;0.85;;
71790;SDS011;59638;52.126;5.434;2022-07-29T08:55:52;5.47;;;1.17;;
71790;SDS011;59638;52.126;5.434;2022-07-29T08:58:19;10.70;;;1.33;;
71790;SDS011;59638;52.126;5.434;2022-07-29T09:00:50;2.47;;;1.00;;
71790;SDS011;59638;52.126;5.434;2022-07-29T09:03:22;4.43;;;0.90;;
71790;SDS011;59638;52.126;5.434;2022-07-29T09:05:50;4.47;;;1.05;;
71790;SDS011;59638;52.126;5.434;2022-07-29T09:08:17;3.50;;;0.95;;
71790;SDS011;59638;52.126;5.434;2022-07-29T09:10:44;4.67;;;0.97;;
71790;SDS011;59638;52.126;5.434;2022-07-29T09:13:11;1.83;;;0.93;;
71790;SDS011;59638;52.126;5.434;2022-07-29T09:15:37;3.22;;;0.82;;
71790;SDS011;59638;52.126;5.434;2022-07-29T09:18:04;3.40;;;1.45;;
71790;SDS011;59638;52.126;5.434;2022-07-29T09:20:31;3.25;;;1.00;;
71790;SDS011;59638;52.126;5.434;2022-07-29T09:23:16;2.63;;;1.00;;
71790;SDS011;59638;52.126;5.434;2022-07-29T09:25:49;5.75;;;1.25;;
71790;SDS011;59638;52.126;5.434;2022-07-29T09:28:17;8.00;;;1.20;;
71790;SDS011;59638;52.126;5.434;2022-07-29T09:30:50;5.60;;;1.50;;
71790;SDS011;59638;52.126;5.434;2022-07-29T09:33:20;4.72;;;1.05;;
71790;SDS011;59638;52.126;5.434;2022-07-29T09:36:07;2.30;;;0.40;;
71790;SDS011;59638;52.126;5.434;2022-07-29T09:38:35;5.32;;;0.80;;
71790;SDS011;59638;52.126;5.434;2022-07-29T09:41:03;4.82;;;0.85;;
71790;SDS011;59638;52.126;5.434;2022-07-29T09:43:32;3.10;;;0.80;;
71790;SDS011;59638;52.126;5.434;2022-07-29T09:46:09;2.13;;;0.80;;
71790;SDS011;59638;52.126;5.434;2022-07-29T09:48:39;2.33;;;0.77;;
71790;SDS011;59638;52.126;5.434;2022-07-29T09:51:16;2.53;;;0.40;;
71790;SDS011;59638;52.126;5.434;2022-07-29T09:53:54;4.07;;;1.25;;
71790;SDS011;59638;52.126;5.434;2022-07-29T09:56:37;3.17;;;0.65;;
71790;SDS011;59638;52.126;5.434;2022-07-29T09:59:07;1.88;;;0.60;;
71790;SDS011;59638;52.126;5.434;2022-07-29T10:01:35;4.70;;;0.83;;
71790;SDS011;59638;52.126;5.434;2022-07-29T10:04:02;2.95;;;0.63;;
71790;SDS011;59638;52.126;5.434;2022-07-29T10:06:28;5.38;;;0.70;;
71790;SDS011;59638;52.126;5.434;2022-07-29T10:09:06;1.75;;;0.88;;
71790;SDS011;59638;52.126;5.434;2022-07-29T10:11:36;2.88;;;0.50;;
71790;SDS011;59638;52.126;5.434;2022-07-29T10:14:14;2.60;;;0.60;;
71790;SDS011;59638;52.126;5.434;2022-07-29T10:16:41;5.53;;;0.55;;
71790;SDS011;59638;52.126;5.434;2022-07-29T10:19:08;2.38;;;0.40;;
71790;SDS011;59638;52.126;5.434;2022-07-29T10:21:35;3.67;;;0.70;;
71790;SDS011;59638;52.126;5.434;2022-07-29T10:24:03;4.20;;;1.00;;
71790;SDS011;59638;52.126;5.434;2022-07-29T10:26:31;1.87;;;1.00;;
71790;SDS011;59638;52.126;5.434;2022-07-29T10:28:57;2.45;;;0.60;;
71790;SDS011;59638;52.126;5.434;2022-07-29T10:31:26;5.32;;;0.70;;
71790;SDS011;59638;52.126;5.434;2022-07-29T10:34:07;2.78;;;0.85;;
71790;SDS011;59638;52.126;5.434;2022-07-29T10:44:59;4.35;;;0.75;;
71790;SDS011;59638;52.126;5.434;2022-07-29T10:47:26;2.75;;;0.57;;
71790;SDS011;59638;52.126;5.434;2022-07-29T10:50:00;1.80;;;0.80;;
71790;SDS011;59638;52.126;5.434;2022-07-29T10:53:04;3.17;;;1.07;;
71790;SDS011;59638;52.126;5.434;2022-07-29T10:55:30;2.67;;;1.38;;
71790;SDS011;59638;52.126;5.434;2022-07-29T10:58:14;6.43;;;1.80;;
71790;SDS011;59638;52.126;5.434;2022-07-29T11:00:50;3.33;;;1.33;;
71790;SDS011;59638;52.126;5.434;2022-07-29T11:06:15;5.10;;;1.50;;
71790;SDS011;59638;52.126;5.434;2022-07-29T11:08:43;5.05;;;1.27;;
71790;SDS011;59638;52.126;5.434;2022-07-29T11:16:14;4.63;;;2.30;;
71790;SDS011;59638;52.126;5.434;2022-07-29T11:21:43;4.55;;;2.00;;
71790;SDS011;59638;52.126;5.434;2022-07-29T11:24:21;3.05;;;1.17;;
71790;SDS011;59638;52.126;5.434;2022-07-29T11:29:39;2.35;;;0.90;;
71790;SDS011;59638;52.126;5.434;2022-07-29T11:32:35;3.67;;;1.00;;
71790;SDS011;59638;52.126;5.434;2022-07-29T11:41:18;3.13;;;1.10;;
71790;SDS011;59638;52.126;5.434;2022-07-29T11:43:53;2.28;;;1.45;;
71790;SDS011;59638;52.126;5.434;2022-07-29T11:49:19;3.38;;;1.35;;
71790;SDS011;59638;52.126;5.434;2022-07-29T11:51:58;2.22;;;1.00;;
71790;SDS011;59638;52.126;5.434;2022-07-29T11:54:31;3.60;;;0.77;;
71790;SDS011;59638;52.126;5.434;2022-07-29T11:57:19;2.22;;;1.15;;
71790;SDS011;59638;52.126;5.434;2022-07-29T11:59:47;3.60;;;1.13;;
71790;SDS011;59638;52.126;5.434;2022-07-29T12:02:14;3.80;;;1.52;;
71790;SDS011;59638;52.126;5.434;2022-07-29T12:05:01;2.90;;;1.70;;
71790;SDS011;59638;52.126;5.434;2022-07-29T12:07:36;2.50;;;1.65;;
71790;SDS011;59638;52.126;5.434;2022-07-29T12:10:06;8.13;;;1.77;;
71790;SDS011;59638;52.126;5.434;2022-07-29T12:12:36;4.60;;;1.37;;
71790;SDS011;59638;52.126;5.434;2022-07-29T12:15:14;4.05;;;1.60;;
71790;SDS011;59638;52.126;5.434;2022-07-29T12:17:45;4.55;;;1.25;;
71790;SDS011;59638;52.126;5.434;2022-07-29T12:20:13;2.33;;;1.52;;
71790;SDS011;59638;52.126;5.434;2022-07-29T12:22:50;2.78;;;1.25;;
71790;SDS011;59638;52.126;5.434;2022-07-29T12:25:19;7.53;;;2.00;;
71790;SDS011;59638;52.126;5.434;2022-07-29T12:28:02;4.95;;;1.50;;
71790;SDS011;59638;52.126;5.434;2022-07-29T12:30:34;2.70;;;1.20;;
71790;SDS011;59638;52.126;5.434;2022-07-29T12:33:10;4.28;;;1.55;;
71790;SDS011;59638;52.126;5.434;2022-07-29T12:35:45;3.70;;;1.52;;
71790;SDS011;59638;52.126;5.434;2022-07-29T12:38:31;3.53;;;1.13;;
71790;SDS011;59638;52.126;5.434;2022-07-29T12:40:58;4.05;;;1.40;;
71790;SDS011;59638;52.126;5.434;2022-07-29T12:43:24;2.20;;;1.35;;
71790;SDS011;59638;52.126;5.434;2022-07-29T12:45:52;3.80;;;1.73;;
71790;SDS011;59638;52.126;5.434;2022-07-29T12:48:33;2.40;;;1.58;;
71790;SDS011;59638;52.126;5.434;2022-07-29T12:51:01;6.10;;;2.10;;
71790;SDS011;59638;52.126;5.434;2022-07-29T12:53:29;1.92;;;1.67;;
71790;SDS011;59638;52.126;5.434;2022-07-29T12:55:56;2.72;;;1.60;;
71790;SDS011;59638;52.126;5.434;2022-07-29T12:58:39;4.72;;;1.33;;
71790;SDS011;59638;52.126;5.434;2022-07-29T13:01:16;2.28;;;1.55;;
71790;SDS011;59638;52.126;5.434;2022-07-29T13:03:48;4.83;;;1.10;;
71790;SDS011;59638;52.126;5.434;2022-07-29T13:06:43;1.95;;;1.13;;
71790;SDS011;59638;52.126;5.434;2022-07-29T13:09:17;3.40;;;1.38;;
71790;SDS011;59638;52.126;5.434;2022-07-29T13:11:46;7.43;;;1.17;;
71790;SDS011;59638;52.126;5.434;2022-07-29T13:14:20;2.28;;;1.13;;
71790;SDS011;59638;52.126;5.434;2022-07-29T13:17:00;6.33;;;1.07;;
71790;SDS011;59638;52.126;5.434;2022-07-29T13:19:48;7.60;;;1.00;;
71790;SDS011;59638;52.126;5.434;2022-07-29T13:22:17;8.10;;;1.75;;
71790;SDS011;59638;52.126;5.434;2022-07-29T13:25:05;10.55;;;1.83;;
71790;SDS011;59638;52.126;5.434;2022-07-29T13:27:33;6.10;;;1.02;;
71790;SDS011;59638;52.126;5.434;2022-07-29T13:30:06;3.80;;;1.23;;
71790;SDS011;59638;52.126;5.434;2022-07-29T13:32:34;3.70;;;0.90;;
71790;SDS011;59638;52.126;5.434;2022-07-29T13:35:04;3.40;;;1.30;;
71790;SDS011;59638;52.126;5.434;2022-07-29T13:37:32;3.75;;;1.15;;
71790;SDS011;59638;52.126;5.434;2022-07-29T13:40:01;4.10;;;1.05;;
71790;SDS011;59638;52.126;5.434;2022-07-29T13:42:29;5.90;;;1.33;;
71790;SDS011;59638;52.126;5.434;2022-07-29T13:44:57;2.13;;;0.68;;
71790;SDS011;59638;52.126;5.434;2022-07-29T13:47:24;5.90;;;0.77;;
71790;SDS011;59638;52.126;5.434;2022-07-29T13:49:58;6.13;;;1.20;;
71790;SDS011;59638;52.126;5.434;2022-07-29T13:52:25;3.10;;;1.23;;
71790;SDS011;59638;52.126;5.434;2022-07-29T13:54:52;4.03;;;1.13;;
71790;SDS011;59638;52.126;5.434;2022-07-29T13:57:18;4.20;;;0.95;;
71790;SDS011;59638;52.126;5.434;2022-07-29T13:59:45;5.07;;;0.98;;
71790;SDS011;59638;52.126;5.434;2022-07-29T14:02:18;4.38;;;1.35;;
71790;SDS011;59638;52.126;5.434;2022-07-29T14:04:45;3.35;;;0.90;;
71790;SDS011;59638;52.126;5.434;2022-07-29T14:07:11;6.03;;;1.03;;
71790;SDS011;59638;52.126;5.434;2022-07-29T14:09:41;3.42;;;1.27;;
71790;SDS011;59638;52.126;5.434;2022-07-29T14:12:08;3.83;;;1.00;;
71790;SDS011;59638;52.126;5.434;2022-07-29T14:14:35;1.70;;;0.90;;
71790;SDS011;59638;52.126;5.434;2022-07-29T14:17:03;1.48;;;1.05;;
71790;SDS011;59638;52.126;5.434;2022-07-29T14:19:29;4.13;;;0.60;;
71790;SDS011;59638;52.126;5.434;2022-07-29T14:21:58;2.83;;;0.90;;
71790;SDS011;59638;52.126;5.434;2022-07-29T14:24:25;3.65;;;1.02;;
71790;SDS011;59638;52.126;5.434;2022-07-29T14:26:51;2.75;;;0.88;;
71790;SDS011;59638;52.126;5.434;2022-07-29T14:29:17;4.35;;;1.00;;
71790;SDS011;59638;52.126;5.434;2022-07-29T14:31:44;2.33;;;0.80;;
71790;SDS011;59638;52.126;5.434;2022-07-29T14:34:10;4.30;;;0.82;;
71790;SDS011;59638;52.126;5.434;2022-07-29T14:36:37;5.45;;;0.90;;
71790;SDS011;59638;52.126;5.434;2022-07-29T14:39:03;2.58;;;1.42;;
71790;SDS011;59638;52.126;5.434;2022-07-29T14:41:30;3.03;;;0.80;;
71790;SDS011;59638;52.126;5.434;2022-07-29T14:43:56;3.63;;;1.20;;
71790;SDS011;59638;52.126;5.434;2022-07-29T14:46:23;5.05;;;1.95;;
71790;SDS011;59638;52.126;5.434;2022-07-29T14:48:50;5.90;;;1.92;;
71790;SDS011;59638;52.126;5.434;2022-07-29T14:51:16;10.60;;;2.65;;
71790;SDS011;59638;52.126;5.434;2022-07-29T14:53:43;2.78;;;1.20;;
71790;SDS011;59638;52.126;5.434;2022-07-29T14:56:09;4.63;;;1.57;;
71790;SDS011;59638;52.126;5.434;2022-07-29T14:58:56;8.07;;;1.95;;
71790;SDS011;59638;52.126;5.434;2022-07-29T15:01:23;8.70;;;1.73;;
71790;SDS011;59638;52.126;5.434;2022-07-29T15:03:51;4.68;;;1.77;;
71790;SDS011;59638;52.126;5.434;2022-07-29T15:06:24;3.60;;;1.58;;
71790;SDS011;59638;52.126;5.434;2022-07-29T15:08:50;3.80;;;1.63;;
71790;SDS011;59638;52.126;5.434;2022-07-29T15:11:17;4.05;;;1.30;;
71790;SDS011;59638;52.126;5.434;2022-07-29T15:13:43;4.38;;;1.20;;
71790;SDS011;59638;52.126;5.434;2022-07-29T15:16:10;5.70;;;1.27;;
71790;SDS011;59638;52.126;5.434;2022-07-29T15:18:36;6.75;;;1.52;;
71790;SDS011;59638;52.126;5.434;2022-07-29T15:21:04;3.47;;;1.00;;
71790;SDS011;59638;52.126;5.434;2022-07-29T15:23:32;2.15;;;0.70;;
71790;SDS011;59638;52.126;5.434;2022-07-29T15:26:02;5.90;;;1.10;;
71790;SDS011;59638;52.126;5.434;2022-07-29T15:28:29;6.25;;;0.70;;
71790;SDS011;59638;52.126;5.434;2022-07-29T15:30:56;5.78;;;0.80;;
71790;SDS011;59638;52.126;5.434;2022-07-29T15:33:23;7.70;;;1.07;;
71790;SDS011;59638;52.126;5.434;2022-07-29T15:35:50;2.58;;;0.70;;
71790;SDS011;59638;52.126;5.434;2022-07-29T15:38:16;1.83;;;0.75;;
71790;SDS011;59638;52.126;5.434;2022-07-29T15:40:43;2.70;;;0.90;;
71790;SDS011;59638;52.126;5.434;2022-07-29T15:43:10;3.47;;;0.60;;
71790;SDS011;59638;52.126;5.434;2022-07-29T15:45:38;2.17;;;0.60;;
71790;SDS011;59638;52.126;5.434;2022-07-29T15:48:06;3.60;;;0.60;;
71790;SDS011;59638;52.126;5.434;2022-07-29T15:50:39;2.22;;;0.60;;
71790;SDS011;59638;52.126;5.434;2022-07-29T15:53:06;1.20;;;0.45;;
71790;SDS011;59638;52.126;5.434;2022-07-29T15:55:32;1.23;;;0.60;;